sensor_id;sensor_type;location;lat;lon;timestamp;P1;durP1;ratioP1;P2;durP2;ratioP2
1382;SDS011;685;47.196;11.880;2023-04-03T00:00:49;0.97;;;0.63;;
1382;SDS011;685;47.196;11.880;2023-04-03T00:03:16;1.33;;;0.90;;
1382;SDS011;685;47.196;11.880;2023-04-03T00:05:44;1.00;;;0.63;;
1382;SDS011;685;47.196;11.880;2023-04-03T00:08:12;1.00;;;0.70;;
1382;SDS011;685;47.196;11.880;2023-04-03T00:10:39;0.90;;;0.60;;
1382;SDS011;685;47.196;11.880;2023-04-03T00:13:06;0.80;;;0.40;;
1382;SDS011;685;47.196;11.880;2023-04-03T00:15:34;0.90;;;0.70;;
1382;SDS011;685;47.196;11.880;2023-04-03T00:18:01;0.80;;;0.50;;
1382;SDS011;685;47.196;11.880;2023-04-03T00:20:29;1.00;;;0.60;;
1382;SDS011;685;47.196;11.880;2023-04-03T00:22:57;0.90;;;0.60;;
1382;SDS011;685;47.196;11.880;2023-04-03T00:25:24;0.90;;;0.60;;
1382;SDS011;685;47.196;11.880;2023-04-03T00:27:51;0.90;;;0.50;;
1382;SDS011;685;47.196;11.880;2023-04-03T00:30:18;0.90;;;0.53;;
1382;SDS011;685;47.196;11.880;2023-04-03T00:32:47;1.00;;;0.80;;
1382;SDS011;685;47.196;11.880;2023-04-03T00:35:14;1.10;;;0.70;;
1382;SDS011;685;47.196;11.880;2023-04-03T00:37:41;1.10;;;1.00;;
1382;SDS011;685;47.196;11.880;2023-04-03T00:40:10;1.10;;;1.00;;
1382;SDS011;685;47.196;11.880;2023-04-03T00:42:38;1.30;;;1.17;;
1382;SDS011;685;47.196;11.880;2023-04-03T00:45:29;1.20;;;1.00;;
1382;SDS011;685;47.196;11.880;2023-04-03T00:47:58;1.33;;;1.20;;
1382;SDS011;685;47.196;11.880;2023-04-03T00:50:27;1.30;;;1.10;;
1382;SDS011;685;47.196;11.880;2023-04-03T00:52:55;2.07;;;1.50;;
1382;SDS011;685;47.196;11.880;2023-04-03T00:55:25;1.40;;;1.13;;
1382;SDS011;685;47.196;11.880;2023-04-03T00:57:52;1.33;;;1.00;;
1382;SDS011;685;47.196;11.880;2023-04-03T01:00:21;2.40;;;1.10;;
1382;SDS011;685;47.196;11.880;2023-04-03T01:02:49;1.57;;;1.33;;
1382;SDS011;685;47.196;11.880;2023-04-03T01:05:17;1.90;;;1.70;;
1382;SDS011;685;47.196;11.880;2023-04-03T01:07:47;1.47;;;1.03;;
1382;SDS011;685;47.196;11.880;2023-04-03T01:10:15;1.90;;;0.90;;
1382;SDS011;685;47.196;11.880;2023-04-03T01:12:47;1.60;;;1.50;;
1382;SDS011;685;47.196;11.880;2023-04-03T01:15:16;1.30;;;1.20;;
1382;SDS011;685;47.196;11.880;2023-04-03T01:17:45;1.90;;;1.30;;
1382;SDS011;685;47.196;11.880;2023-04-03T01:20:19;1.77;;;1.57;;
1382;SDS011;685;47.196;11.880;2023-04-03T01:23:05;1.20;;;1.10;;
1382;SDS011;685;47.196;11.880;2023-04-03T01:25:39;1.40;;;1.10;;
1382;SDS011;685;47.196;11.880;2023-04-03T01:28:09;2.03;;;1.70;;
1382;SDS011;685;47.196;11.880;2023-04-03T01:30:39;1.47;;;1.33;;
1382;SDS011;685;47.196;11.880;2023-04-03T01:33:13;1.67;;;1.47;;
1382;SDS011;685;47.196;11.880;2023-04-03T01:35:39;1.30;;;1.20;;
1382;SDS011;685;47.196;11.880;2023-04-03T01:38:06;1.53;;;1.40;;
1382;SDS011;685;47.196;11.880;2023-04-03T01:40:33;1.93;;;1.57;;
1382;SDS011;685;47.196;11.880;2023-04-03T01:43:00;2.10;;;1.67;;
1382;SDS011;685;47.196;11.880;2023-04-03T01:45:27;3.20;;;2.00;;
1382;SDS011;685;47.196;11.880;2023-04-03T01:47:55;1.60;;;1.40;;
1382;SDS011;685;47.196;11.880;2023-04-03T01:50:23;1.50;;;1.40;;
1382;SDS011;685;47.196;11.880;2023-04-03T01:52:50;1.47;;;1.37;;
1382;SDS011;685;47.196;11.880;2023-04-03T01:55:17;2.60;;;1.80;;
1382;SDS011;685;47.196;11.880;2023-04-03T01:57:44;2.33;;;1.67;;
1382;SDS011;685;47.196;11.880;2023-04-03T02:00:11;1.90;;;1.70;;
1382;SDS011;685;47.196;11.880;2023-04-03T02:02:39;2.00;;;1.80;;
1382;SDS011;685;47.196;11.880;2023-04-03T02:05:06;2.70;;;2.20;;
1382;SDS011;685;47.196;11.880;2023-04-03T02:07:35;2.33;;;1.70;;
1382;SDS011;685;47.196;11.880;2023-04-03T02:10:02;5.43;;;1.90;;
1382;SDS011;685;47.196;11.880;2023-04-03T02:12:29;2.97;;;2.77;;
1382;SDS011;685;47.196;11.880;2023-04-03T02:14:56;3.20;;;2.90;;
1382;SDS011;685;47.196;11.880;2023-04-03T02:17:23;1.90;;;1.70;;
1382;SDS011;685;47.196;11.880;2023-04-03T02:19:50;2.40;;;1.90;;
1382;SDS011;685;47.196;11.880;2023-04-03T02:22:17;2.37;;;1.70;;
1382;SDS011;685;47.196;11.880;2023-04-03T02:24:46;2.80;;;2.27;;
1382;SDS011;685;47.196;11.880;2023-04-03T02:27:13;2.70;;;2.50;;
1382;SDS011;685;47.196;11.880;2023-04-03T02:29:40;2.90;;;1.90;;
1382;SDS011;685;47.196;11.880;2023-04-03T02:32:07;2.50;;;1.90;;
1382;SDS011;685;47.196;11.880;2023-04-03T02:34:34;2.40;;;2.20;;
1382;SDS011;685;47.196;11.880;2023-04-03T02:37:01;2.00;;;1.80;;
1382;SDS011;685;47.196;11.880;2023-04-03T02:39:28;2.10;;;1.90;;
1382;SDS011;685;47.196;11.880;2023-04-03T02:41:56;2.40;;;2.07;;
1382;SDS011;685;47.196;11.880;2023-04-03T02:44:23;2.50;;;2.27;;
1382;SDS011;685;47.196;11.880;2023-04-03T02:46:50;4.00;;;2.33;;
1382;SDS011;685;47.196;11.880;2023-04-03T02:49:17;2.73;;;1.87;;
1382;SDS011;685;47.196;11.880;2023-04-03T02:51:44;2.37;;;1.93;;
1382;SDS011;685;47.196;11.880;2023-04-03T02:54:12;2.40;;;2.20;;
1382;SDS011;685;47.196;11.880;2023-04-03T02:56:39;2.60;;;1.73;;
1382;SDS011;685;47.196;11.880;2023-04-03T02:59:08;2.63;;;2.13;;
1382;SDS011;685;47.196;11.880;2023-04-03T03:01:35;2.20;;;1.80;;
1382;SDS011;685;47.196;11.880;2023-04-03T03:04:02;2.00;;;1.80;;
1382;SDS011;685;47.196;11.880;2023-04-03T03:06:29;2.57;;;2.37;;
1382;SDS011;685;47.196;11.880;2023-04-03T03:08:56;2.33;;;2.13;;
1382;SDS011;685;47.196;11.880;2023-04-03T03:11:22;2.73;;;2.43;;
1382;SDS011;685;47.196;11.880;2023-04-03T03:13:50;2.60;;;2.13;;
1382;SDS011;685;47.196;11.880;2023-04-03T03:16:18;3.30;;;3.00;;
1382;SDS011;685;47.196;11.880;2023-04-03T03:18:45;3.00;;;2.23;;
1382;SDS011;685;47.196;11.880;2023-04-03T03:21:12;3.03;;;2.57;;
1382;SDS011;685;47.196;11.880;2023-04-03T03:23:39;3.53;;;2.20;;
1382;SDS011;685;47.196;11.880;2023-04-03T03:26:07;2.97;;;2.67;;
1382;SDS011;685;47.196;11.880;2023-04-03T03:28:35;1.80;;;1.70;;
1382;SDS011;685;47.196;11.880;2023-04-03T03:31:03;4.27;;;2.30;;
1382;SDS011;685;47.196;11.880;2023-04-03T03:33:32;2.10;;;1.90;;
1382;SDS011;685;47.196;11.880;2023-04-03T03:35:59;2.50;;;2.20;;
1382;SDS011;685;47.196;11.880;2023-04-03T03:38:26;2.23;;;1.67;;
1382;SDS011;685;47.196;11.880;2023-04-03T03:40:53;2.50;;;2.30;;
1382;SDS011;685;47.196;11.880;2023-04-03T03:43:20;2.20;;;2.00;;
1382;SDS011;685;47.196;11.880;2023-04-03T03:45:49;2.70;;;2.50;;
1382;SDS011;685;47.196;11.880;2023-04-03T03:48:17;2.40;;;2.20;;
1382;SDS011;685;47.196;11.880;2023-04-03T03:50:46;3.43;;;2.57;;
1382;SDS011;685;47.196;11.880;2023-04-03T03:53:13;3.17;;;2.53;;
1382;SDS011;685;47.196;11.880;2023-04-03T03:55:41;2.80;;;2.60;;
1382;SDS011;685;47.196;11.880;2023-04-03T03:58:08;2.87;;;2.50;;
1382;SDS011;685;47.196;11.880;2023-04-03T04:00:35;3.07;;;2.43;;
1382;SDS011;685;47.196;11.880;2023-04-03T04:03:02;3.17;;;2.87;;
1382;SDS011;685;47.196;11.880;2023-04-03T04:05:29;4.00;;;3.40;;
1382;SDS011;685;47.196;11.880;2023-04-03T04:07:58;4.03;;;2.50;;
1382;SDS011;685;47.196;11.880;2023-04-03T04:10:25;2.80;;;2.60;;
1382;SDS011;685;47.196;11.880;2023-04-03T04:12:52;2.67;;;2.13;;
1382;SDS011;685;47.196;11.880;2023-04-03T04:15:19;3.43;;;3.03;;
1382;SDS011;685;47.196;11.880;2023-04-03T04:17:46;2.60;;;2.40;;
1382;SDS011;685;47.196;11.880;2023-04-03T04:20:14;3.17;;;2.87;;
1382;SDS011;685;47.196;11.880;2023-04-03T04:22:41;3.57;;;3.20;;
1382;SDS011;685;47.196;11.880;2023-04-03T04:25:09;3.60;;;3.30;;
1382;SDS011;685;47.196;11.880;2023-04-03T04:27:36;3.00;;;2.60;;
1382;SDS011;685;47.196;11.880;2023-04-03T04:30:03;2.50;;;2.30;;
1382;SDS011;685;47.196;11.880;2023-04-03T04:32:31;3.87;;;3.57;;
1382;SDS011;685;47.196;11.880;2023-04-03T04:34:58;3.13;;;2.73;;
1382;SDS011;685;47.196;11.880;2023-04-03T04:37:26;3.53;;;2.30;;
1382;SDS011;685;47.196;11.880;2023-04-03T04:39:53;2.63;;;2.43;;
1382;SDS011;685;47.196;11.880;2023-04-03T04:42:21;3.10;;;2.80;;
1382;SDS011;685;47.196;11.880;2023-04-03T04:44:48;3.53;;;2.73;;
1382;SDS011;685;47.196;11.880;2023-04-03T04:47:15;3.80;;;3.40;;
1382;SDS011;685;47.196;11.880;2023-04-03T04:49:42;5.97;;;4.93;;
1382;SDS011;685;47.196;11.880;2023-04-03T04:52:09;5.03;;;4.20;;
1382;SDS011;685;47.196;11.880;2023-04-03T04:54:36;3.70;;;3.40;;
1382;SDS011;685;47.196;11.880;2023-04-03T04:57:03;5.00;;;3.60;;
1382;SDS011;685;47.196;11.880;2023-04-03T04:59:32;4.67;;;3.80;;
1382;SDS011;685;47.196;11.880;2023-04-03T05:01:59;3.57;;;3.00;;
1382;SDS011;685;47.196;11.880;2023-04-03T05:04:26;4.50;;;4.00;;
1382;SDS011;685;47.196;11.880;2023-04-03T05:06:53;4.80;;;3.90;;
1382;SDS011;685;47.196;11.880;2023-04-03T05:09:20;4.87;;;3.43;;
1382;SDS011;685;47.196;11.880;2023-04-03T05:11:47;4.13;;;3.50;;
1382;SDS011;685;47.196;11.880;2023-04-03T05:14:14;4.90;;;4.10;;
1382;SDS011;685;47.196;11.880;2023-04-03T05:16:42;4.07;;;3.67;;
1382;SDS011;685;47.196;11.880;2023-04-03T05:19:09;3.73;;;3.20;;
1382;SDS011;685;47.196;11.880;2023-04-03T05:21:36;4.20;;;3.70;;
1382;SDS011;685;47.196;11.880;2023-04-03T05:24:03;4.67;;;3.63;;
1382;SDS011;685;47.196;11.880;2023-04-03T05:26:34;3.90;;;3.33;;
1382;SDS011;685;47.196;11.880;2023-04-03T05:29:01;6.90;;;5.77;;
1382;SDS011;685;47.196;11.880;2023-04-03T05:31:28;9.27;;;6.73;;
1382;SDS011;685;47.196;11.880;2023-04-03T05:33:56;5.97;;;4.43;;
1382;SDS011;685;47.196;11.880;2023-04-03T05:36:24;4.50;;;4.07;;
1382;SDS011;685;47.196;11.880;2023-04-03T05:38:51;4.70;;;3.57;;
1382;SDS011;685;47.196;11.880;2023-04-03T05:41:18;4.53;;;4.10;;
1382;SDS011;685;47.196;11.880;2023-04-03T05:43:46;4.90;;;3.90;;
1382;SDS011;685;47.196;11.880;2023-04-03T05:46:16;4.30;;;3.90;;
1382;SDS011;685;47.196;11.880;2023-04-03T05:48:45;4.90;;;4.40;;
1382;SDS011;685;47.196;11.880;2023-04-03T05:51:15;5.13;;;4.60;;
1382;SDS011;685;47.196;11.880;2023-04-03T05:53:44;5.03;;;3.83;;
1382;SDS011;685;47.196;11.880;2023-04-03T05:56:11;5.50;;;4.47;;
1382;SDS011;685;47.196;11.880;2023-04-03T05:58:38;5.10;;;4.60;;
1382;SDS011;685;47.196;11.880;2023-04-03T06:01:05;5.47;;;4.20;;
1382;SDS011;685;47.196;11.880;2023-04-03T06:03:32;4.80;;;4.30;;
1382;SDS011;685;47.196;11.880;2023-04-03T06:06:01;5.73;;;4.93;;
1382;SDS011;685;47.196;11.880;2023-04-03T06:08:30;6.60;;;5.00;;
1382;SDS011;685;47.196;11.880;2023-04-03T06:10:57;4.83;;;4.33;;
1382;SDS011;685;47.196;11.880;2023-04-03T06:13:24;8.83;;;4.63;;
1382;SDS011;685;47.196;11.880;2023-04-03T06:15:51;5.40;;;4.43;;
1382;SDS011;685;47.196;11.880;2023-04-03T06:18:18;4.87;;;4.13;;
1382;SDS011;685;47.196;11.880;2023-04-03T06:20:45;5.23;;;4.43;;
1382;SDS011;685;47.196;11.880;2023-04-03T06:23:12;5.77;;;4.70;;
1382;SDS011;685;47.196;11.880;2023-04-03T06:25:40;5.27;;;4.77;;
1382;SDS011;685;47.196;11.880;2023-04-03T06:28:08;5.00;;;4.50;;
1382;SDS011;685;47.196;11.880;2023-04-03T06:30:35;5.20;;;4.70;;
1382;SDS011;685;47.196;11.880;2023-04-03T06:33:02;5.40;;;4.67;;
1382;SDS011;685;47.196;11.880;2023-04-03T06:35:29;5.20;;;4.43;;
1382;SDS011;685;47.196;11.880;2023-04-03T06:37:56;5.40;;;4.90;;
1382;SDS011;685;47.196;11.880;2023-04-03T06:40:24;7.07;;;5.60;;
1382;SDS011;685;47.196;11.880;2023-04-03T06:42:53;6.73;;;5.60;;
1382;SDS011;685;47.196;11.880;2023-04-03T06:45:20;5.77;;;5.00;;
1382;SDS011;685;47.196;11.880;2023-04-03T06:47:47;5.57;;;4.97;;
1382;SDS011;685;47.196;11.880;2023-04-03T06:50:14;6.23;;;4.83;;
1382;SDS011;685;47.196;11.880;2023-04-03T06:52:41;5.07;;;4.67;;
1382;SDS011;685;47.196;11.880;2023-04-03T06:55:08;5.17;;;4.77;;
1382;SDS011;685;47.196;11.880;2023-04-03T06:57:36;6.53;;;5.73;;
1382;SDS011;685;47.196;11.880;2023-04-03T07:00:06;6.53;;;5.23;;
1382;SDS011;685;47.196;11.880;2023-04-03T07:02:35;6.40;;;5.47;;
1382;SDS011;685;47.196;11.880;2023-04-03T07:05:02;5.53;;;5.03;;
1382;SDS011;685;47.196;11.880;2023-04-03T07:07:29;7.83;;;4.80;;
1382;SDS011;685;47.196;11.880;2023-04-03T07:09:56;5.47;;;4.23;;
1382;SDS011;685;47.196;11.880;2023-04-03T07:12:23;3.97;;;2.90;;
1382;SDS011;685;47.196;11.880;2023-04-03T07:14:50;3.57;;;3.27;;
1382;SDS011;685;47.196;11.880;2023-04-03T07:17:19;7.10;;;4.60;;
1382;SDS011;685;47.196;11.880;2023-04-03T07:19:46;7.93;;;5.97;;
1382;SDS011;685;47.196;11.880;2023-04-03T07:22:13;7.30;;;4.60;;
1382;SDS011;685;47.196;11.880;2023-04-03T07:24:39;4.90;;;4.10;;
1382;SDS011;685;47.196;11.880;2023-04-03T07:27:06;4.97;;;4.47;;
1382;SDS011;685;47.196;11.880;2023-04-03T07:29:33;4.47;;;3.67;;
1382;SDS011;685;47.196;11.880;2023-04-03T07:32:01;5.23;;;4.40;;
1382;SDS011;685;47.196;11.880;2023-04-03T07:34:30;3.40;;;3.10;;
1382;SDS011;685;47.196;11.880;2023-04-03T07:36:57;3.90;;;3.50;;
1382;SDS011;685;47.196;11.880;2023-04-03T07:39:25;3.50;;;3.20;;
1382;SDS011;685;47.196;11.880;2023-04-03T07:41:53;4.60;;;3.17;;
1382;SDS011;685;47.196;11.880;2023-04-03T07:44:20;3.93;;;3.53;;
1382;SDS011;685;47.196;11.880;2023-04-03T07:46:47;7.13;;;4.77;;
1382;SDS011;685;47.196;11.880;2023-04-03T07:49:15;5.23;;;4.73;;
1382;SDS011;685;47.196;11.880;2023-04-03T07:51:44;6.20;;;4.30;;
1382;SDS011;685;47.196;11.880;2023-04-03T07:54:11;6.73;;;5.70;;
1382;SDS011;685;47.196;11.880;2023-04-03T07:56:38;7.03;;;6.33;;
1382;SDS011;685;47.196;11.880;2023-04-03T07:59:05;6.97;;;6.00;;
1382;SDS011;685;47.196;11.880;2023-04-03T08:01:32;10.00;;;4.83;;
1382;SDS011;685;47.196;11.880;2023-04-03T08:03:59;6.20;;;5.30;;
1382;SDS011;685;47.196;11.880;2023-04-03T08:06:26;6.03;;;5.43;;
1382;SDS011;685;47.196;11.880;2023-04-03T08:08:56;6.67;;;5.30;;
1382;SDS011;685;47.196;11.880;2023-04-03T08:11:23;6.20;;;5.27;;
1382;SDS011;685;47.196;11.880;2023-04-03T08:13:51;6.73;;;4.53;;
1382;SDS011;685;47.196;11.880;2023-04-03T08:16:20;5.87;;;4.83;;
1382;SDS011;685;47.196;11.880;2023-04-03T08:18:48;7.47;;;4.93;;
1382;SDS011;685;47.196;11.880;2023-04-03T08:21:15;5.20;;;4.70;;
1382;SDS011;685;47.196;11.880;2023-04-03T08:23:42;5.50;;;4.63;;
1382;SDS011;685;47.196;11.880;2023-04-03T08:26:11;4.47;;;4.00;;
1382;SDS011;685;47.196;11.880;2023-04-03T08:28:39;6.33;;;4.63;;
1382;SDS011;685;47.196;11.880;2023-04-03T08:31:07;7.63;;;5.50;;
1382;SDS011;685;47.196;11.880;2023-04-03T08:33:36;6.33;;;5.07;;
1382;SDS011;685;47.196;11.880;2023-04-03T08:36:04;6.80;;;5.43;;
1382;SDS011;685;47.196;11.880;2023-04-03T08:38:32;4.20;;;3.73;;
1382;SDS011;685;47.196;11.880;2023-04-03T08:41:06;3.87;;;3.50;;
1382;SDS011;685;47.196;11.880;2023-04-03T08:43:43;4.33;;;3.87;;
1382;SDS011;685;47.196;11.880;2023-04-03T08:46:23;4.13;;;3.73;;
1382;SDS011;685;47.196;11.880;2023-04-03T08:49:11;2.63;;;2.30;;
1382;SDS011;685;47.196;11.880;2023-04-03T08:51:45;4.00;;;3.40;;
1382;SDS011;685;47.196;11.880;2023-04-03T08:54:17;4.67;;;3.87;;
1382;SDS011;685;47.196;11.880;2023-04-03T08:56:55;5.30;;;4.40;;
1382;SDS011;685;47.196;11.880;2023-04-03T08:59:24;5.63;;;4.60;;
1382;SDS011;685;47.196;11.880;2023-04-03T09:01:56;3.83;;;3.43;;
1382;SDS011;685;47.196;11.880;2023-04-03T09:04:25;5.03;;;4.53;;
1382;SDS011;685;47.196;11.880;2023-04-03T09:06:55;8.50;;;4.47;;
1382;SDS011;685;47.196;11.880;2023-04-03T09:09:30;4.80;;;3.97;;
1382;SDS011;685;47.196;11.880;2023-04-03T09:12:03;4.30;;;3.90;;
1382;SDS011;685;47.196;11.880;2023-04-03T09:14:38;5.13;;;3.63;;
1382;SDS011;685;47.196;11.880;2023-04-03T09:17:10;3.70;;;3.27;;
1382;SDS011;685;47.196;11.880;2023-04-03T09:19:43;3.43;;;3.10;;
1382;SDS011;685;47.196;11.880;2023-04-03T09:22:17;3.40;;;3.00;;
1382;SDS011;685;47.196;11.880;2023-04-03T09:24:47;3.80;;;3.40;;
1382;SDS011;685;47.196;11.880;2023-04-03T09:27:19;4.47;;;3.40;;
1382;SDS011;685;47.196;11.880;2023-04-03T09:29:46;4.40;;;3.50;;
1382;SDS011;685;47.196;11.880;2023-04-03T09:32:19;3.60;;;3.27;;
1382;SDS011;685;47.196;11.880;2023-04-03T09:34:50;3.20;;;2.87;;
1382;SDS011;685;47.196;11.880;2023-04-03T09:42:57;3.90;;;3.30;;
1382;SDS011;685;47.196;11.880;2023-04-03T09:45:26;4.33;;;3.80;;
1382;SDS011;685;47.196;11.880;2023-04-03T09:48:04;3.70;;;3.20;;
1382;SDS011;685;47.196;11.880;2023-04-03T09:50:32;4.20;;;3.47;;
1382;SDS011;685;47.196;11.880;2023-04-03T09:53:02;3.67;;;3.10;;
1382;SDS011;685;47.196;11.880;2023-04-03T09:55:33;4.00;;;3.20;;
1382;SDS011;685;47.196;11.880;2023-04-03T09:58:24;4.33;;;3.93;;
1382;SDS011;685;47.196;11.880;2023-04-03T10:00:54;4.37;;;3.30;;
1382;SDS011;685;47.196;11.880;2023-04-03T10:03:24;3.90;;;3.60;;
1382;SDS011;685;47.196;11.880;2023-04-03T10:05:54;3.20;;;2.63;;
1382;SDS011;685;47.196;11.880;2023-04-03T10:08:24;4.50;;;3.50;;
1382;SDS011;685;47.196;11.880;2023-04-03T10:11:05;4.70;;;3.33;;
1382;SDS011;685;47.196;11.880;2023-04-03T10:13:52;3.90;;;3.50;;
1382;SDS011;685;47.196;11.880;2023-04-03T10:16:21;3.40;;;3.10;;
1382;SDS011;685;47.196;11.880;2023-04-03T10:19:14;2.97;;;2.67;;
1382;SDS011;685;47.196;11.880;2023-04-03T10:21:57;4.20;;;2.90;;
1382;SDS011;685;47.196;11.880;2023-04-03T10:24:30;4.17;;;3.60;;
1382;SDS011;685;47.196;11.880;2023-04-03T10:27:05;3.60;;;3.30;;
1382;SDS011;685;47.196;11.880;2023-04-03T10:29:40;3.67;;;2.70;;
1382;SDS011;685;47.196;11.880;2023-04-03T10:32:21;3.60;;;3.13;;
1382;SDS011;685;47.196;11.880;2023-04-03T10:35:01;3.77;;;3.37;;
1382;SDS011;685;47.196;11.880;2023-04-03T10:37:35;3.67;;;2.70;;
1382;SDS011;685;47.196;11.880;2023-04-03T10:40:15;3.10;;;2.80;;
1382;SDS011;685;47.196;11.880;2023-04-03T10:42:50;5.40;;;3.80;;
1382;SDS011;685;47.196;11.880;2023-04-03T10:45:26;3.20;;;2.90;;
1382;SDS011;685;47.196;11.880;2023-04-03T10:48:00;3.83;;;2.70;;
1382;SDS011;685;47.196;11.880;2023-04-03T10:50:38;3.40;;;3.10;;
1382;SDS011;685;47.196;11.880;2023-04-03T10:53:12;3.70;;;3.30;;
1382;SDS011;685;47.196;11.880;2023-04-03T10:55:48;3.10;;;2.53;;
1382;SDS011;685;47.196;11.880;2023-04-03T10:58:20;3.47;;;3.03;;
1382;SDS011;685;47.196;11.880;2023-04-03T11:00:54;3.03;;;2.73;;
1382;SDS011;685;47.196;11.880;2023-04-03T11:03:26;4.27;;;3.60;;
1382;SDS011;685;47.196;11.880;2023-04-03T11:05:56;3.20;;;2.80;;
1382;SDS011;685;47.196;11.880;2023-04-03T11:08:26;4.67;;;3.20;;
1382;SDS011;685;47.196;11.880;2023-04-03T11:11:00;2.87;;;2.57;;
1382;SDS011;685;47.196;11.880;2023-04-03T11:13:32;2.57;;;2.37;;
1382;SDS011;685;47.196;11.880;2023-04-03T11:16:04;3.43;;;2.87;;
1382;SDS011;685;47.196;11.880;2023-04-03T11:18:33;2.70;;;2.50;;
1382;SDS011;685;47.196;11.880;2023-04-03T11:21:07;3.83;;;3.17;;
1382;SDS011;685;47.196;11.880;2023-04-03T11:23:39;3.23;;;2.70;;
1382;SDS011;685;47.196;11.880;2023-04-03T11:26:08;3.30;;;2.80;;
1382;SDS011;685;47.196;11.880;2023-04-03T11:28:37;2.90;;;2.60;;
1382;SDS011;685;47.196;11.880;2023-04-03T11:31:08;2.63;;;2.37;;
1382;SDS011;685;47.196;11.880;2023-04-03T11:33:44;3.00;;;2.70;;
1382;SDS011;685;47.196;11.880;2023-04-03T11:36:19;2.90;;;2.60;;
1382;SDS011;685;47.196;11.880;2023-04-03T11:38:50;3.03;;;2.70;;
1382;SDS011;685;47.196;11.880;2023-04-03T11:41:23;2.83;;;2.23;;
1382;SDS011;685;47.196;11.880;2023-04-03T11:43:56;2.43;;;2.23;;
1382;SDS011;685;47.196;11.880;2023-04-03T11:58:24;2.67;;;2.47;;
1382;SDS011;685;47.196;11.880;2023-04-03T12:01:02;2.63;;;2.20;;
1382;SDS011;685;47.196;11.880;2023-04-03T12:12:31;2.13;;;1.93;;
1382;SDS011;685;47.196;11.880;2023-04-03T12:17:51;2.60;;;2.13;;
1382;SDS011;685;47.196;11.880;2023-04-03T12:23:24;2.47;;;2.27;;
1382;SDS011;685;47.196;11.880;2023-04-03T12:25:53;2.70;;;2.20;;
1382;SDS011;685;47.196;11.880;2023-04-03T12:28:28;2.40;;;2.10;;
1382;SDS011;685;47.196;11.880;2023-04-03T12:30:55;2.97;;;2.17;;
1382;SDS011;685;47.196;11.880;2023-04-03T12:33:24;2.10;;;1.90;;
1382;SDS011;685;47.196;11.880;2023-04-03T12:36:06;2.20;;;1.93;;
1382;SDS011;685;47.196;11.880;2023-04-03T12:41:38;2.00;;;1.80;;
1382;SDS011;685;47.196;11.880;2023-04-03T12:44:31;2.63;;;2.13;;
1382;SDS011;685;47.196;11.880;2023-04-03T12:47:13;2.57;;;2.37;;
1382;SDS011;685;47.196;11.880;2023-04-03T12:49:49;3.93;;;2.00;;
1382;SDS011;685;47.196;11.880;2023-04-03T12:52:22;2.00;;;1.80;;
1382;SDS011;685;47.196;11.880;2023-04-03T12:54:56;2.37;;;1.60;;
1382;SDS011;685;47.196;11.880;2023-04-03T12:57:25;1.50;;;1.40;;
1382;SDS011;685;47.196;11.880;2023-04-03T12:59:53;1.67;;;1.50;;
1382;SDS011;685;47.196;11.880;2023-04-03T13:02:23;1.93;;;1.70;;
1382;SDS011;685;47.196;11.880;2023-04-03T13:04:51;1.67;;;1.47;;
1382;SDS011;685;47.196;11.880;2023-04-03T13:07:22;3.13;;;2.20;;
1382;SDS011;685;47.196;11.880;2023-04-03T13:09:57;1.70;;;1.60;;
1382;SDS011;685;47.196;11.880;2023-04-03T13:12:25;3.23;;;2.20;;
1382;SDS011;685;47.196;11.880;2023-04-03T13:14:53;2.03;;;1.70;;
1382;SDS011;685;47.196;11.880;2023-04-03T13:17:23;1.93;;;1.60;;
1382;SDS011;685;47.196;11.880;2023-04-03T13:19:52;2.90;;;2.37;;
1382;SDS011;685;47.196;11.880;2023-04-03T13:22:26;2.33;;;2.10;;
1382;SDS011;685;47.196;11.880;2023-04-03T13:24:56;2.40;;;2.20;;
1382;SDS011;685;47.196;11.880;2023-04-03T13:27:28;2.03;;;1.83;;
1382;SDS011;685;47.196;11.880;2023-04-03T13:29:57;2.73;;;1.90;;
1382;SDS011;685;47.196;11.880;2023-04-03T13:32:27;2.53;;;2.33;;
1382;SDS011;685;47.196;11.880;2023-04-03T13:34:56;2.30;;;2.10;;
1382;SDS011;685;47.196;11.880;2023-04-03T13:37:24;2.87;;;2.57;;
1382;SDS011;685;47.196;11.880;2023-04-03T13:39:57;2.53;;;1.80;;
1382;SDS011;685;47.196;11.880;2023-04-03T13:42:30;5.87;;;4.07;;
1382;SDS011;685;47.196;11.880;2023-04-03T13:45:09;4.20;;;2.07;;
1382;SDS011;685;47.196;11.880;2023-04-03T13:47:43;1.40;;;1.20;;
1382;SDS011;685;47.196;11.880;2023-04-03T13:50:15;4.07;;;2.00;;
1382;SDS011;685;47.196;11.880;2023-04-03T13:52:48;1.63;;;1.33;;
1382;SDS011;685;47.196;11.880;2023-04-03T13:55:17;2.07;;;1.87;;
1382;SDS011;685;47.196;11.880;2023-04-03T13:57:53;2.00;;;1.70;;
1382;SDS011;685;47.196;11.880;2023-04-03T14:00:27;1.47;;;1.23;;
1382;SDS011;685;47.196;11.880;2023-04-03T14:02:56;1.57;;;1.30;;
1382;SDS011;685;47.196;11.880;2023-04-03T14:05:24;2.73;;;2.00;;
1382;SDS011;685;47.196;11.880;2023-04-03T14:07:53;1.60;;;1.50;;
1382;SDS011;685;47.196;11.880;2023-04-03T14:10:21;2.03;;;1.83;;
1382;SDS011;685;47.196;11.880;2023-04-03T14:12:49;1.70;;;1.53;;
1382;SDS011;685;47.196;11.880;2023-04-03T14:15:18;1.50;;;1.40;;
1382;SDS011;685;47.196;11.880;2023-04-03T14:17:46;2.10;;;1.90;;
1382;SDS011;685;47.196;11.880;2023-04-03T14:20:14;2.63;;;1.80;;
1382;SDS011;685;47.196;11.880;2023-04-03T14:22:42;1.83;;;1.60;;
1382;SDS011;685;47.196;11.880;2023-04-03T14:25:11;2.97;;;1.77;;
1382;SDS011;685;47.196;11.880;2023-04-03T14:27:38;1.77;;;1.67;;
1382;SDS011;685;47.196;11.880;2023-04-03T14:30:08;2.13;;;1.93;;
1382;SDS011;685;47.196;11.880;2023-04-03T14:32:39;3.00;;;1.80;;
1382;SDS011;685;47.196;11.880;2023-04-03T14:35:06;2.00;;;1.60;;
1382;SDS011;685;47.196;11.880;2023-04-03T14:37:34;1.90;;;1.70;;
1382;SDS011;685;47.196;11.880;2023-04-03T14:40:01;2.10;;;1.90;;
1382;SDS011;685;47.196;11.880;2023-04-03T14:42:31;3.10;;;2.00;;
1382;SDS011;685;47.196;11.880;2023-04-03T14:45:01;2.10;;;1.90;;
1382;SDS011;685;47.196;11.880;2023-04-03T14:47:29;2.20;;;2.00;;
1382;SDS011;685;47.196;11.880;2023-04-03T14:49:57;2.20;;;2.00;;
1382;SDS011;685;47.196;11.880;2023-04-03T14:52:26;2.50;;;2.10;;
1382;SDS011;685;47.196;11.880;2023-04-03T14:54:54;2.43;;;2.13;;
1382;SDS011;685;47.196;11.880;2023-04-03T14:57:22;2.63;;;2.43;;
1382;SDS011;685;47.196;11.880;2023-04-03T14:59:52;2.13;;;2.03;;
1382;SDS011;685;47.196;11.880;2023-04-03T15:02:25;2.80;;;1.60;;
1382;SDS011;685;47.196;11.880;2023-04-03T15:04:53;2.20;;;1.90;;
1382;SDS011;685;47.196;11.880;2023-04-03T15:07:21;2.60;;;2.10;;
1382;SDS011;685;47.196;11.880;2023-04-03T15:09:48;2.10;;;1.70;;
1382;SDS011;685;47.196;11.880;2023-04-03T15:12:16;2.80;;;1.70;;
1382;SDS011;685;47.196;11.880;2023-04-03T15:14:43;2.57;;;2.10;;
1382;SDS011;685;47.196;11.880;2023-04-03T15:17:12;1.70;;;1.50;;
1382;SDS011;685;47.196;11.880;2023-04-03T15:19:41;2.57;;;1.57;;
1382;SDS011;685;47.196;11.880;2023-04-03T15:22:09;1.80;;;1.57;;
1382;SDS011;685;47.196;11.880;2023-04-03T15:24:40;2.10;;;1.90;;
1382;SDS011;685;47.196;11.880;2023-04-03T15:27:08;1.80;;;1.70;;
1382;SDS011;685;47.196;11.880;2023-04-03T15:29:35;2.30;;;1.80;;
1382;SDS011;685;47.196;11.880;2023-04-03T15:32:03;2.40;;;1.87;;
1382;SDS011;685;47.196;11.880;2023-04-03T15:34:31;1.80;;;1.70;;
1382;SDS011;685;47.196;11.880;2023-04-03T15:36:58;1.87;;;1.77;;
1382;SDS011;685;47.196;11.880;2023-04-03T15:39:25;2.03;;;1.83;;
1382;SDS011;685;47.196;11.880;2023-04-03T15:41:52;1.63;;;1.50;;
1382;SDS011;685;47.196;11.880;2023-04-03T15:44:20;2.10;;;1.90;;
1382;SDS011;685;47.196;11.880;2023-04-03T15:46:47;1.90;;;1.80;;
1382;SDS011;685;47.196;11.880;2023-04-03T15:49:16;2.27;;;2.07;;
1382;SDS011;685;47.196;11.880;2023-04-03T15:51:45;2.37;;;1.70;;
1382;SDS011;685;47.196;11.880;2023-04-03T15:54:12;2.10;;;1.53;;
1382;SDS011;685;47.196;11.880;2023-04-03T15:56:39;2.33;;;2.13;;
1382;SDS011;685;47.196;11.880;2023-04-03T15:59:06;2.40;;;2.00;;
1382;SDS011;685;47.196;11.880;2023-04-03T16:01:32;2.50;;;2.00;;
1382;SDS011;685;47.196;11.880;2023-04-03T16:04:00;1.80;;;1.57;;